createdAt,value
2019-04-03T00:00:38.882Z,40.03
2019-04-03T00:03:42.485Z,40.70
2019-04-03T00:06:46.090Z,36.47
2019-04-03T00:09:49.755Z,34.97
2019-04-03T00:12:53.365Z,34.57
2019-04-03T00:15:56.985Z,35.57
2019-04-03T00:19:00.849Z,33.80
2019-04-03T00:22:04.441Z,32.87
2019-04-03T00:25:08.398Z,32.67
2019-04-03T00:28:12.532Z,32.30
2019-04-03T00:31:16.117Z,34.23
2019-04-03T00:34:19.718Z,32.30
2019-04-03T00:37:23.764Z,33.43
2019-04-03T00:40:27.365Z,32.50
2019-04-03T00:43:30.962Z,30.87
2019-04-03T00:46:34.541Z,31.53
2019-04-03T00:49:38.493Z,31.20
2019-04-03T00:52:42.081Z,29.63
2019-04-03T00:55:45.670Z,29.73
2019-04-03T00:58:49.713Z,28.67
2019-04-03T01:01:53.406Z,29.20
2019-04-03T01:04:59.082Z,30.47
2019-04-03T01:08:02.860Z,27.33
2019-04-03T01:11:06.874Z,26.43
2019-04-03T01:14:10.471Z,25.87
2019-04-03T01:17:14.071Z,25.53
2019-04-03T01:20:17.653Z,28.53
2019-04-03T01:23:21.567Z,24.10
2019-04-03T01:26:25.242Z,23.97
2019-04-03T01:29:29.299Z,24.43
2019-04-03T01:32:33.242Z,25.03
2019-04-03T01:35:36.951Z,25.17
2019-04-03T01:38:40.624Z,24.87
2019-04-03T01:41:44.214Z,23.27
2019-04-03T01:44:47.810Z,23.27
2019-04-03T01:47:51.395Z,23.97
2019-04-03T01:50:55.009Z,24.07
2019-04-03T01:53:58.593Z,23.00
2019-04-03T01:57:02.600Z,22.73
2019-04-03T02:00:07.694Z,21.00
2019-04-03T02:03:12.095Z,22.73
2019-04-03T02:06:15.879Z,22.23
2019-04-03T02:09:19.406Z,20.67
2019-04-03T02:12:22.999Z,21.40
2019-04-03T02:15:26.876Z,22.57
2019-04-03T02:18:30.730Z,19.90
2019-04-03T02:21:34.715Z,19.23
2019-04-03T02:24:38.341Z,21.90
2019-04-03T02:27:42.257Z,18.60
2019-04-03T02:30:47.162Z,18.80
2019-04-03T02:33:50.900Z,18.70
2019-04-03T02:36:55.449Z,18.33
2019-04-03T02:40:00.555Z,19.07
2019-04-03T02:43:04.538Z,19.27
2019-04-03T02:46:08.230Z,17.43
2019-04-03T02:49:12.009Z,18.70
2019-04-03T02:52:16.135Z,17.33
2019-04-03T02:55:20.024Z,18.03
2019-04-03T02:58:23.679Z,16.57
2019-04-03T03:01:27.493Z,17.47
2019-04-03T03:04:31.708Z,16.70
2019-04-03T03:07:36.404Z,17.77
2019-04-03T03:10:40.871Z,15.87
2019-04-03T03:13:45.540Z,26.00
2019-04-03T03:16:51.177Z,17.50
2019-04-03T03:19:55.082Z,17.03
2019-04-03T03:22:58.757Z,15.67
2019-04-03T03:26:04.985Z,17.00
2019-04-03T03:29:18.201Z,15.03
2019-04-03T03:32:19.771Z,15.67
2019-04-03T03:35:28.618Z,17.50
2019-04-03T03:38:27.811Z,15.53
2019-04-03T03:41:30.857Z,14.13
2019-04-03T03:44:34.860Z,14.20
2019-04-03T03:47:38.896Z,15.27
2019-04-03T03:50:43.001Z,14.00
2019-04-03T03:53:47.777Z,14.90
2019-04-03T03:56:51.798Z,13.03
2019-04-03T03:59:55.902Z,13.47
2019-04-03T04:02:59.799Z,13.83
2019-04-03T04:06:03.461Z,15.60
2019-04-03T04:09:08.377Z,13.27
2019-04-03T04:12:12.257Z,13.47
2019-04-03T04:15:16.223Z,13.93
2019-04-03T04:18:22.385Z,15.83
2019-04-03T04:21:26.957Z,70.27
2019-04-03T04:24:30.646Z,54.37
2019-04-03T04:27:37.891Z,57.87
2019-04-03T04:30:42.101Z,63.90
2019-04-03T04:33:47.970Z,40.90
2019-04-03T04:36:55.430Z,194.20
2019-04-03T04:40:00.294Z,465.73
2019-04-03T04:43:04.389Z,511.43
2019-04-03T04:46:09.760Z,462.90
2019-04-03T04:49:13.935Z,439.23
2019-04-03T04:52:18.107Z,428.40
2019-04-03T04:55:21.842Z,298.97
2019-04-03T04:58:25.422Z,165.90
2019-04-03T05:01:29.021Z,161.77
2019-04-03T05:04:32.961Z,192.40
2019-04-03T05:07:36.909Z,162.97
2019-04-03T05:10:42.602Z,159.97
2019-04-03T05:13:47.160Z,154.87
2019-04-03T05:16:50.786Z,145.77
2019-04-03T05:19:54.618Z,142.73
2019-04-03T05:22:58.384Z,139.27
2019-04-03T05:26:02.327Z,142.77
2019-04-03T05:29:06.410Z,137.77
2019-04-03T05:32:10.821Z,132.83
2019-04-03T05:35:15.519Z,124.73
2019-04-03T05:38:21.831Z,123.43
2019-04-03T05:41:27.442Z,119.23
2019-04-03T05:44:32.831Z,115.00
2019-04-03T05:47:38.698Z,116.80
2019-04-03T05:50:41.215Z,117.83
2019-04-03T05:53:44.826Z,112.13
2019-04-03T05:56:51.510Z,111.67
2019-04-03T06:00:00.717Z,107.63
2019-04-03T06:02:59.202Z,106.47
2019-04-03T06:06:03.084Z,105.20
2019-04-03T06:09:07.211Z,99.53
2019-04-03T06:12:12.989Z,98.60
2019-04-03T06:15:16.313Z,98.73
2019-04-03T06:18:19.909Z,92.57
2019-04-03T06:21:23.794Z,94.50
2019-04-03T06:24:27.387Z,90.87
2019-04-03T06:27:30.993Z,90.23
2019-04-03T06:30:35.070Z,89.13
2019-04-03T06:33:39.245Z,83.93
2019-04-03T06:36:42.871Z,82.43
2019-04-03T06:39:46.693Z,80.30
2019-04-03T06:42:50.876Z,80.83
2019-04-03T06:45:57.093Z,77.40
2019-04-03T06:49:00.446Z,78.00
2019-04-03T06:52:04.452Z,73.60
2019-04-03T06:55:08.138Z,73.10
2019-04-03T06:58:12.361Z,74.60
2019-04-03T07:01:16.404Z,74.77
2019-04-03T07:04:20.204Z,68.57
2019-04-03T07:07:33.531Z,66.63
2019-04-03T07:10:29.102Z,67.67
2019-04-03T07:13:32.691Z,66.17
2019-04-03T07:16:38.611Z,65.07
2019-04-03T07:19:42.094Z,62.07
2019-04-03T07:22:45.749Z,62.20
2019-04-03T07:25:49.340Z,63.67
2019-04-03T07:28:52.936Z,62.70
2019-04-03T07:31:56.969Z,61.40
2019-04-03T07:35:00.782Z,61.27
2019-04-03T07:38:04.381Z,61.20
2019-04-03T07:41:07.983Z,57.03
2019-04-03T07:44:11.569Z,57.33
2019-04-03T07:47:15.470Z,55.80
2019-04-03T07:50:19.934Z,53.10
2019-04-03T07:53:23.562Z,54.90
2019-04-03T07:56:27.155Z,57.43
2019-04-03T07:59:33.556Z,53.83
2019-04-03T08:02:36.334Z,51.93
2019-04-03T08:05:40.426Z,51.97
2019-04-03T08:08:44.392Z,53.23
2019-04-03T08:11:47.987Z,48.97
2019-04-03T08:14:51.609Z,46.83
2019-04-03T08:17:57.070Z,47.97
2019-04-03T08:21:02.068Z,47.90
2019-04-03T08:24:07.975Z,46.80
2019-04-03T08:27:11.157Z,45.23
2019-04-03T08:30:14.966Z,46.10
2019-04-03T08:33:24.128Z,43.27
2019-04-03T08:36:26.486Z,42.43
2019-04-03T08:39:30.228Z,45.93
2019-04-03T08:42:33.807Z,42.00
2019-04-03T08:45:38.532Z,42.17
2019-04-03T08:48:43.450Z,40.23
2019-04-03T08:51:47.039Z,37.10
2019-04-03T08:54:50.611Z,37.93
2019-04-03T08:57:54.527Z,39.03
2019-04-03T09:00:58.492Z,38.73
2019-04-03T09:04:02.071Z,38.63
2019-04-03T09:07:05.766Z,37.83
2019-04-03T09:10:10.020Z,37.40
2019-04-03T09:13:17.404Z,36.97
2019-04-03T09:16:19.143Z,35.43
2019-04-03T09:19:22.791Z,34.73
2019-04-03T09:22:26.397Z,36.27
2019-04-03T09:25:31.586Z,34.23
2019-04-03T09:28:35.267Z,34.30
2019-04-03T09:31:39.403Z,32.50
2019-04-03T09:34:43.610Z,31.37
2019-04-03T09:37:47.233Z,31.93
2019-04-03T09:40:50.810Z,33.50
2019-04-03T09:43:54.780Z,31.60
2019-04-03T09:46:58.691Z,32.37
2019-04-03T09:50:02.445Z,37.87
2019-04-03T09:53:06.111Z,29.47
2019-04-03T09:56:09.761Z,27.47
2019-04-03T09:59:15.466Z,29.00
2019-04-03T10:02:19.587Z,28.70
2019-04-03T10:05:24.150Z,30.40
2019-04-03T10:08:27.765Z,31.47
2019-04-03T10:11:31.339Z,30.67
2019-04-03T10:14:34.938Z,28.00
2019-04-03T10:17:39.660Z,31.20
2019-04-03T10:20:43.322Z,27.40
2019-04-03T10:23:46.905Z,23.40
2019-04-03T10:26:50.564Z,25.33
2019-04-03T10:29:56.316Z,26.37
2019-04-03T10:33:00.402Z,24.13
2019-04-03T10:36:04.682Z,23.57
2019-04-03T10:39:10.255Z,22.23
2019-04-03T10:42:14.087Z,22.60
2019-04-03T10:45:19.229Z,21.93
2019-04-03T10:48:23.503Z,24.50
2019-04-03T10:51:27.348Z,20.97
2019-04-03T10:54:31.050Z,21.90
2019-04-03T10:57:35.011Z,19.70
2019-04-03T11:00:39.224Z,20.73
2019-04-03T11:03:43.438Z,21.10
2019-04-03T11:06:47.306Z,21.27
2019-04-03T11:09:51.299Z,22.87
2019-04-03T11:12:54.883Z,20.10
2019-04-03T11:15:59.007Z,20.80
2019-04-03T11:19:06.092Z,20.17
2019-04-03T11:22:08.337Z,18.93
2019-04-03T11:25:15.305Z,19.03
2019-04-03T11:28:17.793Z,18.93
2019-04-03T11:31:27.094Z,18.37
2019-04-03T11:34:27.815Z,19.20
2019-04-03T11:37:33.090Z,17.63
2019-04-03T11:40:36.835Z,16.30
2019-04-03T11:43:40.865Z,18.13
2019-04-03T11:46:44.514Z,18.27
2019-04-03T11:49:49.829Z,16.37
2019-04-03T11:52:53.709Z,16.87
2019-04-03T11:55:57.438Z,16.83
2019-04-03T11:59:00.966Z,15.60
2019-04-03T12:02:07.432Z,16.77
2019-04-03T12:05:10.167Z,15.23
2019-04-03T12:08:14.943Z,13.47
2019-04-03T12:11:18.454Z,14.00
2019-04-03T12:14:22.642Z,15.10
2019-04-03T12:17:26.990Z,14.50
2019-04-03T12:20:31.713Z,14.10
2019-04-03T12:23:35.868Z,14.70
2019-04-03T12:26:43.583Z,16.20
2019-04-03T12:29:46.482Z,14.87
2019-04-03T12:32:50.359Z,14.90
2019-04-03T12:35:54.369Z,14.03
2019-04-03T12:38:57.937Z,13.17
2019-04-03T12:42:01.808Z,13.20
2019-04-03T12:45:07.492Z,13.00
2019-04-03T12:48:11.358Z,13.00
2019-04-03T12:51:15.464Z,12.27
2019-04-03T12:54:20.320Z,10.87
2019-04-03T12:57:24.506Z,12.90
2019-04-03T13:00:28.388Z,11.87
2019-04-03T13:03:32.314Z,11.33
2019-04-03T13:06:36.161Z,11.10
2019-04-03T13:09:40.119Z,11.30
2019-04-03T13:12:43.701Z,11.27
2019-04-03T13:15:47.257Z,10.93
2019-04-03T13:18:51.002Z,12.17
2019-04-03T13:21:54.862Z,10.57
2019-04-03T13:24:58.543Z,9.87
2019-04-03T13:28:03.928Z,8.73
2019-04-03T13:31:07.576Z,11.07
2019-04-03T13:34:11.871Z,10.13
2019-04-03T13:37:15.560Z,9.23
2019-04-03T13:40:19.410Z,10.00
2019-04-03T13:43:22.994Z,9.30
2019-04-03T13:46:26.937Z,10.20
2019-04-03T13:49:31.008Z,9.97
2019-04-03T13:52:40.835Z,9.20
2019-04-03T13:55:40.994Z,8.73
2019-04-03T13:58:44.880Z,8.97
2019-04-03T14:01:48.855Z,7.80
2019-04-03T14:04:52.467Z,9.60
2019-04-03T14:07:56.182Z,8.30
2019-04-03T14:10:59.755Z,9.77
2019-04-03T14:14:03.652Z,8.73
2019-04-03T14:17:07.216Z,9.13
2019-04-03T14:20:13.074Z,9.77
2019-04-03T14:23:16.891Z,8.73
2019-04-03T14:26:20.831Z,7.47
2019-04-03T14:29:24.452Z,8.30
2019-04-03T14:32:28.658Z,9.53
2019-04-03T14:35:47.307Z,8.23
2019-04-03T14:38:38.060Z,7.10
2019-04-03T14:41:42.044Z,8.20
2019-04-03T14:44:46.583Z,8.63
2019-04-03T14:47:50.856Z,8.17
2019-04-03T14:50:54.839Z,7.83
2019-04-03T14:53:58.776Z,7.00
2019-04-03T14:57:12.591Z,7.00
2019-04-03T15:00:23.358Z,7.43
2019-04-03T15:03:13.700Z,8.90
2019-04-03T15:06:17.710Z,8.30
2019-04-03T15:09:21.303Z,7.73
2019-04-03T15:12:24.879Z,6.37
2019-04-03T15:15:28.844Z,6.87
2019-04-03T15:18:32.743Z,7.77
2019-04-03T15:21:36.466Z,7.33
2019-04-03T15:24:42.252Z,8.40
2019-04-03T15:27:45.372Z,8.40
2019-04-03T15:30:48.945Z,20.13
2019-04-03T15:33:54.270Z,21.43
2019-04-03T15:36:58.220Z,35.77
2019-04-03T15:40:03.449Z,19.20
2019-04-03T15:43:07.115Z,101.33
2019-04-03T15:46:11.033Z,39.80
2019-04-03T15:49:14.610Z,27.93
2019-04-03T15:52:18.195Z,29.10
2019-04-03T15:55:24.137Z,42.70
2019-04-03T15:58:28.200Z,34.63
2019-04-03T16:01:32.292Z,32.30
2019-04-03T16:04:36.025Z,31.77
2019-04-03T16:07:41.449Z,31.07
2019-04-03T16:10:45.239Z,27.63
2019-04-03T16:13:49.110Z,26.33
2019-04-03T16:16:52.982Z,30.47
2019-04-03T16:19:57.429Z,25.87
2019-04-03T16:23:02.636Z,24.57
2019-04-03T16:26:06.714Z,26.63
2019-04-03T16:29:10.835Z,24.10
2019-04-03T16:32:14.806Z,24.57
2019-04-03T16:35:18.461Z,25.43
2019-04-03T16:38:22.068Z,23.40
2019-04-03T16:41:25.663Z,23.37
2019-04-03T16:44:29.238Z,21.47
2019-04-03T16:47:32.832Z,23.40
2019-04-03T16:50:37.374Z,20.40
2019-04-03T16:53:41.432Z,23.03
2019-04-03T16:56:46.996Z,12.10
2019-04-03T16:59:51.782Z,45.20
2019-04-03T17:02:56.012Z,92.33
2019-04-03T17:06:01.047Z,99.53
2019-04-03T17:09:07.758Z,79.33
2019-04-03T17:12:11.279Z,62.47
2019-04-03T17:15:15.477Z,23.23
2019-04-03T17:18:19.082Z,121.97
2019-04-03T17:21:22.657Z,110.83
2019-04-03T17:24:27.152Z,105.30
2019-04-03T17:27:31.566Z,89.30
2019-04-03T17:30:35.665Z,74.13
2019-04-03T17:33:39.265Z,67.57
2019-04-03T17:36:43.076Z,63.80
2019-04-03T17:39:46.711Z,49.00
2019-04-03T17:42:50.917Z,28.10
2019-04-03T17:45:54.497Z,42.33
2019-04-03T17:48:58.071Z,39.23
2019-04-03T17:52:04.749Z,41.17
2019-04-03T17:55:10.127Z,41.63
2019-04-03T17:58:16.531Z,43.00
2019-04-03T18:01:22.267Z,52.53
2019-04-03T18:04:24.769Z,46.33
2019-04-03T18:07:28.985Z,38.27
2019-04-03T18:10:33.067Z,42.80
2019-04-03T18:13:36.682Z,34.40
2019-04-03T18:16:40.615Z,35.63
2019-04-03T18:19:44.249Z,38.40
2019-04-03T18:22:50.371Z,36.57
2019-04-03T18:25:53.589Z,36.90
2019-04-03T18:28:57.511Z,37.07
2019-04-03T18:32:01.189Z,10.77
2019-04-03T18:35:07.086Z,9.10
2019-04-03T18:38:10.906Z,11.53
2019-04-03T18:41:15.011Z,24.60
2019-04-03T18:44:22.259Z,11.73
2019-04-03T18:47:25.409Z,13.77
2019-04-03T18:50:29.058Z,14.40
2019-04-03T18:53:33.083Z,14.17
2019-04-03T18:56:37.192Z,11.07
2019-04-03T18:59:40.791Z,11.90
2019-04-03T19:02:44.356Z,8.73
2019-04-03T19:05:48.270Z,8.07
2019-04-03T19:08:51.893Z,9.60
2019-04-03T19:12:07.751Z,13.47
2019-04-03T19:15:03.305Z,9.70
2019-04-03T19:18:18.878Z,7.93
2019-04-03T19:21:24.111Z,6.33
2019-04-03T19:24:18.454Z,7.80
2019-04-03T19:27:23.055Z,15.07
2019-04-03T19:30:28.576Z,11.60
2019-04-03T19:33:51.693Z,15.67
2019-04-03T19:36:55.279Z,85.77
2019-04-03T19:40:01.251Z,111.13
2019-04-03T19:43:04.454Z,87.63
2019-04-03T19:46:08.036Z,62.37
2019-04-03T19:49:11.626Z,54.53
2019-04-03T19:52:15.247Z,51.13
2019-04-03T19:55:19.544Z,22.60
2019-04-03T19:58:23.294Z,43.07
2019-04-03T20:01:27.307Z,45.57
2019-04-03T20:04:31.221Z,54.40
2019-04-03T20:07:34.806Z,46.13
2019-04-03T20:10:38.708Z,57.63
2019-04-03T20:13:42.845Z,47.57
2019-04-03T20:16:46.455Z,45.47
2019-04-03T20:19:50.059Z,43.67
2019-04-03T20:22:54.259Z,43.43
2019-04-03T20:25:57.851Z,51.00
2019-04-03T20:29:02.306Z,43.27
2019-04-03T20:32:07.153Z,40.40
2019-04-03T20:35:11.165Z,36.17
2019-04-03T20:38:15.052Z,42.73
2019-04-03T20:41:18.666Z,34.80
2019-04-03T20:44:22.310Z,37.53
2019-04-03T20:47:27.027Z,38.87
2019-04-03T20:50:31.060Z,37.87
2019-04-03T20:53:34.931Z,36.80
2019-04-03T20:56:38.824Z,36.10
2019-04-03T20:59:43.532Z,30.83
2019-04-03T21:02:48.323Z,33.53
2019-04-03T21:05:52.283Z,31.47
2019-04-03T21:08:58.789Z,24.97
2019-04-03T21:12:03.106Z,31.40
2019-04-03T21:15:09.194Z,24.73
2019-04-03T21:18:13.046Z,27.00
2019-04-03T21:21:16.625Z,26.67
2019-04-03T21:24:20.211Z,28.87
2019-04-03T21:27:23.791Z,28.63
2019-04-03T21:30:27.380Z,25.50
2019-04-03T21:33:31.401Z,42.10
2019-04-03T21:36:38.570Z,42.53
2019-04-03T21:39:43.577Z,110.73
2019-04-03T21:42:46.270Z,56.97
2019-04-03T21:45:49.854Z,58.50
2019-04-03T21:48:53.443Z,56.50
2019-04-03T21:51:57.028Z,49.13
2019-04-03T21:55:00.901Z,45.00
2019-04-03T21:58:04.483Z,44.53
2019-04-03T22:01:26.086Z,44.73
2019-04-03T22:04:30.159Z,37.83
2019-04-03T22:07:33.752Z,39.57
2019-04-03T22:10:37.334Z,39.77
2019-04-03T22:13:41.229Z,33.80
2019-04-03T22:16:44.813Z,35.33
2019-04-03T22:19:48.667Z,35.77
2019-04-03T22:22:52.252Z,33.83
2019-04-03T22:25:55.830Z,33.97
2019-04-03T22:28:59.673Z,32.60
2019-04-03T22:32:03.583Z,32.27
2019-04-03T22:35:07.638Z,29.57
2019-04-03T22:38:11.231Z,29.60
2019-04-03T22:41:14.788Z,31.27
2019-04-03T22:44:18.345Z,31.77
2019-04-03T22:47:23.105Z,27.87
2019-04-03T22:50:27.424Z,26.90
2019-04-03T22:53:31.323Z,28.43
2019-04-03T22:56:35.391Z,25.03
2019-04-03T22:59:38.952Z,27.50
2019-04-03T23:02:42.965Z,27.40
2019-04-03T23:05:48.071Z,23.37
2019-04-03T23:08:53.818Z,26.80
2019-04-03T23:11:58.182Z,27.67
2019-04-03T23:15:01.841Z,24.97
2019-04-03T23:18:05.545Z,25.60
2019-04-03T23:21:09.487Z,23.90
2019-04-03T23:24:13.431Z,26.80
2019-04-03T23:27:17.007Z,28.93
2019-04-03T23:30:20.664Z,25.00
2019-04-03T23:33:24.240Z,25.23
2019-04-03T23:36:27.809Z,22.27
2019-04-03T23:39:31.747Z,22.93
2019-04-03T23:42:35.938Z,25.00
2019-04-03T23:45:43.526Z,21.57
2019-04-03T23:48:46.988Z,19.07
2019-04-03T23:51:51.758Z,22.63
2019-04-03T23:54:55.344Z,21.67
2019-04-03T23:57:58.926Z,23.50
